Time;durP1;ratioP1;P1;durP2;ratioP2;P2;SDS_P1;SDS_P2;PMS_P1;PMS_P2;Temp;Humidity;BMP_temperature;BMP_pressure;BME280_temperature;BME280_humidity;BME280_pressure;Samples;Min_cycle;Max_cycle;Signal;HPM_P1;HPM_P2
2023/06/16 00:02:06;;;;;;;18.98;9.73;;;;;;;21.30;62.71;100049.69;1681088;85;21064;-59
2023/06/16 00:04:35;;;;;;;23.98;10.50;;;;;;;21.31;62.90;100050.53;1680993;85;21181;-60
2023/06/16 00:07:06;;;;;;;19.70;10.28;;;;;;;21.27;63.04;100046.63;1693209;85;21545;-60
2023/06/16 00:09:35;;;;;;;19.40;10.93;;;;;;;21.24;63.14;100048.02;1693333;85;21040;-59
2023/06/16 00:12:05;;;;;;;16.93;10.38;;;;;;;21.26;63.19;100046.34;1693260;85;21024;-59
2023/06/16 00:14:33;;;;;;;21.17;10.55;;;;;;;21.25;63.60;100050.24;1688478;85;21084;-59
2023/06/16 00:17:05;;;;;;;19.98;10.60;;;;;;;21.21;63.79;100048.53;1680871;85;21040;-60
2023/06/16 00:19:34;;;;;;;18.92;10.98;;;;;;;21.18;63.90;100044.34;1680931;85;21040;-60
2023/06/16 00:22:03;;;;;;;18.45;10.78;;;;;;;21.15;64.11;100043.51;1681052;85;21061;-59
2023/06/16 00:24:33;;;;;;;18.80;10.93;;;;;;;21.12;64.31;100047.41;1680751;85;21551;-60
2023/06/16 00:27:02;;;;;;;20.82;10.78;;;;;;;21.06;64.43;100038.75;1681061;85;21017;-59
2023/06/16 00:29:31;;;;;;;20.88;10.80;;;;;;;20.97;64.68;100036.23;1680865;85;21080;-59
2023/06/16 00:31:59;;;;;;;21.77;10.63;;;;;;;20.92;64.94;100034.27;1680991;85;21152;-59
2023/06/16 00:34:29;;;;;;;18.05;10.95;;;;;;;20.92;65.11;100037.61;1680868;85;21045;-60
2023/06/16 00:36:58;;;;;;;20.35;10.78;;;;;;;20.86;65.52;100036.77;1681059;85;21693;-58
2023/06/16 00:39:27;;;;;;;19.77;11.28;;;;;;;20.81;65.84;100033.41;1680910;85;21016;-59
2023/06/16 00:41:55;;;;;;;25.35;11.22;;;;;;;20.76;66.05;100033.36;1681018;85;21068;-59
2023/06/16 00:44:25;;;;;;;20.23;11.03;;;;;;;20.71;66.39;100029.73;1680842;85;21065;-59
2023/06/16 00:46:53;;;;;;;22.85;11.80;;;;;;;20.67;66.65;100035.00;1681061;85;21126;-59
2023/06/16 00:49:23;;;;;;;20.77;11.18;;;;;;;20.65;66.89;100030.27;1651026;87;21119;-60
2023/06/16 00:51:52;;;;;;;18.77;11.38;;;;;;;20.59;67.08;100027.18;1622242;88;21024;-60
2023/06/16 00:54:21;;;;;;;19.25;10.85;;;;;;;20.54;67.28;100028.00;1677480;85;21021;-59
2023/06/16 00:56:51;;;;;;;21.55;11.10;;;;;;;20.53;67.53;100033.28;1658677;85;21566;-60
2023/06/16 00:59:23;;;;;;;19.98;11.12;;;;;;;20.50;67.73;100034.38;1613711;89;21089;-59
2023/06/16 01:01:52;;;;;;;22.00;11.80;;;;;;;20.42;67.85;100027.95;1631308;87;21083;-60
2023/06/16 01:04:23;;;;;;;21.37;11.38;;;;;;;20.38;68.24;100033.19;1614042;89;21049;-59
2023/06/16 01:07:14;;;;;;;21.70;11.57;;;;;;;20.35;68.46;100039.84;1647051;86;21049;-59
2023/06/16 01:10:00;;;;;;;23.07;11.75;;;;;;;20.34;68.53;100036.23;1602609;88;21093;-60
2023/06/16 01:13:02;;;;;;;20.05;11.38;;;;;;;20.33;68.56;100024.81;1642211;86;21040;-58
2023/06/16 01:15:31;;;;;;;28.83;12.20;;;;;;;20.26;68.75;100030.63;1604091;88;21070;-58
2023/06/16 01:17:59;;;;;;;22.65;11.53;;;;;;;20.23;69.01;100031.72;1588793;89;21086;-59
2023/06/16 01:20:52;;;;;;;20.25;11.68;;;;;;;20.20;69.12;100033.66;1630356;87;21062;-58
2023/06/16 01:24:03;;;;;;;23.12;11.50;;;;;;;20.17;69.34;100034.19;1602399;88;21077;-60
2023/06/16 01:26:32;;;;;;;19.80;11.65;;;;;;;20.06;69.74;100036.05;1646683;87;21065;-59
2023/06/16 01:29:04;;;;;;;22.32;11.68;;;;;;;19.99;70.16;100032.67;1605485;88;21046;-59
2023/06/16 01:31:33;;;;;;;20.43;11.68;;;;;;;19.97;70.34;100035.44;1643190;87;21069;-59
2023/06/16 01:34:02;;;;;;;20.75;12.03;;;;;;;19.91;70.52;100038.73;1645769;87;21105;-59
2023/06/16 01:36:31;;;;;;;24.00;12.43;;;;;;;19.85;70.85;100039.25;1583718;88;21133;-59
2023/06/16 01:39:00;;;;;;;27.05;13.08;;;;;;;19.78;71.13;100033.64;1588957;89;21071;-59
2023/06/16 01:41:30;;;;;;;22.87;12.85;;;;;;;19.69;71.50;100039.41;1589244;90;21551;-59
2023/06/16 01:43:59;;;;;;;29.20;13.15;;;;;;;19.61;71.88;100041.58;1588965;90;21087;-59
2023/06/16 01:46:28;;;;;;;25.43;13.85;;;;;;;19.60;72.20;100041.84;1645095;87;21497;-60
2023/06/16 01:48:57;;;;;;;27.22;13.18;;;;;;;19.58;72.44;100045.45;1602728;88;21069;-59
2023/06/16 01:51:25;;;;;;;23.38;12.20;;;;;;;19.58;72.68;100038.50;1645814;87;21049;-59
2023/06/16 01:53:54;;;;;;;25.40;12.20;;;;;;;19.55;72.82;100041.81;1602476;89;21102;-59
2023/06/16 01:56:22;;;;;;;27.15;13.93;;;;;;;19.48;72.99;100036.41;1647000;85;21226;-59
2023/06/16 01:58:51;;;;;;;24.20;12.80;;;;;;;19.46;73.29;100035.00;1675722;85;21081;-58
2023/06/16 02:01:30;;;;;;;22.95;13.00;;;;;;;19.45;73.47;100034.16;1678861;85;21069;-59
2023/06/16 02:04:15;;;;;;;23.62;13.08;;;;;;;19.42;73.63;100031.08;1678781;85;21049;-60
2023/06/16 02:07:04;;;;;;;24.63;13.95;;;;;;;19.36;73.88;100034.91;1664443;85;21079;-59
2023/06/16 02:09:33;;;;;;;24.47;14.00;;;;;;;19.29;74.37;100026.25;1659730;85;21515;-59
2023/06/16 02:12:09;;;;;;;25.27;13.20;;;;;;;19.28;74.70;100028.73;1678639;85;21041;-59
2023/06/16 02:14:39;;;;;;;25.60;12.73;;;;;;;19.27;74.86;100031.23;1678661;85;21100;-59
2023/06/16 02:17:12;;;;;;;31.25;13.72;;;;;;;19.27;74.99;100026.22;1678654;84;21492;-59
2023/06/16 02:19:40;;;;;;;25.77;13.43;;;;;;;19.29;75.05;100029.02;1678588;85;21500;-59
2023/06/16 02:22:10;;;;;;;25.70;14.00;;;;;;;19.28;75.02;100026.52;1678646;85;21489;-59
2023/06/16 02:24:39;;;;;;;23.70;13.00;;;;;;;19.27;75.13;100023.45;1678611;85;21512;-59
2023/06/16 02:27:08;;;;;;;23.75;13.22;;;;;;;19.25;75.26;100031.20;1678632;85;21080;-59
2023/06/16 02:29:37;;;;;;;26.05;13.90;;;;;;;19.22;75.40;100028.41;1678708;85;21016;-59
2023/06/16 02:32:07;;;;;;;24.45;13.65;;;;;;;19.20;75.62;100023.66;1678864;85;21040;-58
2023/06/16 02:34:36;;;;;;;22.80;13.62;;;;;;;19.21;75.82;100022.56;1678622;84;21081;-59
2023/06/16 02:37:05;;;;;;;25.23;13.43;;;;;;;19.19;75.94;100022.54;1678849;85;21044;-59
2023/06/16 02:39:34;;;;;;;28.92;13.68;;;;;;;19.14;76.26;100021.10;1678838;85;21547;-59
2023/06/16 02:42:03;;;;;;;27.87;14.15;;;;;;;19.13;76.52;100024.98;1678744;85;21068;-59
2023/06/16 02:44:32;;;;;;;26.50;13.58;;;;;;;19.15;76.77;100026.95;1678824;85;21061;-60
2023/06/16 02:47:01;;;;;;;25.85;13.88;;;;;;;19.19;76.82;100028.93;1678841;85;21052;-59
2023/06/16 02:49:31;;;;;;;32.48;14.50;;;;;;;19.21;76.77;100029.51;1678773;85;21017;-60
2023/06/16 02:52:00;;;;;;;27.10;14.93;;;;;;;19.22;76.71;100029.80;1664234;86;21082;-59
2023/06/16 02:54:31;;;;;;;28.57;13.60;;;;;;;19.23;76.61;100031.47;1657674;85;21038;-58
2023/06/16 02:57:00;;;;;;;35.43;16.17;;;;;;;19.24;76.64;100033.14;1657629;85;21090;-59
2023/06/16 02:59:31;;;;;;;31.87;19.75;;;;;;;19.23;76.66;100027.30;1657760;86;21058;-59
2023/06/16 03:01:59;;;;;;;27.75;16.77;;;;;;;19.25;76.84;100030.66;1678350;85;21092;-59
2023/06/16 03:04:30;;;;;;;29.60;17.35;;;;;;;19.28;76.99;100029.29;1645830;87;21124;-60
2023/06/16 03:07:02;;;;;;;35.43;18.02;;;;;;;19.27;77.17;100036.78;1678763;85;21074;-59
2023/06/16 03:09:33;;;;;;;29.35;18.65;;;;;;;19.26;77.34;100035.66;1678687;85;21465;-59
2023/06/16 03:12:01;;;;;;;32.55;19.37;;;;;;;19.25;77.59;100036.77;1678765;85;21048;-59
2023/06/16 03:14:32;;;;;;;36.80;19.32;;;;;;;19.24;77.84;100041.48;1659321;85;21092;-59
2023/06/16 03:17:06;;;;;;;35.05;20.00;;;;;;;19.21;78.04;100037.00;1645545;87;21088;-60
2023/06/16 03:19:35;;;;;;;32.93;19.48;;;;;;;19.23;78.32;100040.35;1678472;85;21073;-59
2023/06/16 03:22:04;;;;;;;28.30;17.92;;;;;;;19.26;78.47;100046.77;1678768;85;21441;-59
2023/06/16 03:24:36;;;;;;;32.70;18.80;;;;;;;19.27;78.59;100040.95;1678414;84;21041;-60
2023/06/16 03:27:06;;;;;;;29.90;18.57;;;;;;;19.28;78.67;100037.07;1678868;84;21072;-58
2023/06/16 03:29:39;;;;;;;31.52;17.87;;;;;;;19.34;78.75;100033.79;1677508;85;21509;-60
2023/06/16 03:32:08;;;;;;;29.60;17.50;;;;;;;19.36;78.75;100038.53;1678741;85;21064;-59
2023/06/16 03:34:38;;;;;;;31.02;18.80;;;;;;;19.38;78.87;100039.66;1678602;85;21042;-59
2023/06/16 03:37:07;;;;;;;34.27;16.35;;;;;;;19.42;78.92;100043.58;1659182;85;21049;-59
2023/06/16 03:39:39;;;;;;;43.63;17.80;;;;;;;19.50;78.73;100044.48;1645400;87;21570;-59
2023/06/16 03:42:08;;;;;;;31.17;17.07;;;;;;;19.57;78.35;100040.44;1678827;85;21057;-59
2023/06/16 03:44:37;;;;;;;29.77;16.20;;;;;;;19.67;78.03;100041.63;1678784;85;21048;-58
2023/06/16 03:47:07;;;;;;;27.95;15.28;;;;;;;19.75;77.88;100052.25;1678663;85;21084;-60
2023/06/16 03:49:36;;;;;;;34.75;16.00;;;;;;;19.85;77.28;100046.20;1678629;85;21102;-60
2023/06/16 03:52:05;;;;;;;32.03;15.98;;;;;;;19.97;76.62;100041.00;1678781;85;21032;-58
2023/06/16 03:54:36;;;;;;;27.85;14.28;;;;;;;20.07;76.32;100046.63;1678752;85;21048;-60
2023/06/16 03:57:05;;;;;;;22.65;14.05;;;;;;;20.16;76.00;100043.09;1679339;85;21083;-60
2023/06/16 03:59:35;;;;;;;22.52;13.13;;;;;;;20.29;75.13;100043.16;1680986;85;21520;-58
2023/06/16 04:02:09;;;;;;;29.72;14.30;;;;;;;20.41;74.48;100047.98;1680558;85;21072;-59
2023/06/16 04:04:35;;;;;;;23.98;13.88;;;;;;;20.54;74.00;100046.09;1680494;85;21030;-59
2023/06/16 04:07:06;;;;;;;25.27;13.32;;;;;;;20.68;73.53;100042.25;1661545;85;21082;-59
2023/06/16 04:09:35;;;;;;;27.10;14.28;;;;;;;20.79;72.83;100045.90;1680830;85;21038;-59
2023/06/16 04:12:05;;;;;;;23.55;14.03;;;;;;;20.89;72.12;100041.78;1680798;85;21070;-60
2023/06/16 04:14:36;;;;;;;25.00;12.43;;;;;;;21.00;72.05;100037.91;1680837;85;21096;-60
2023/06/16 04:17:05;;;;;;;26.10;11.57;;;;;;;21.08;71.60;100041.55;1680737;85;21496;-60
2023/06/16 04:19:35;;;;;;;22.30;11.88;;;;;;;21.16;71.16;100038.22;1680689;85;21049;-59
2023/06/16 04:22:05;;;;;;;21.27;9.50;;;;;;;21.27;70.66;100039.66;1680746;85;21084;-60
2023/06/16 04:24:36;;;;;;;17.32;7.03;;;;;;;21.37;69.49;100039.66;1679500;85;21100;-61
2023/06/16 04:27:06;;;;;;;19.25;8.08;;;;;;;21.48;67.99;100042.77;1680701;85;21064;-60
2023/06/16 04:29:41;;;;;;;14.55;7.33;;;;;;;21.59;67.47;100038.03;1661634;85;21029;-60
2023/06/16 04:32:13;;;;;;;17.65;6.60;;;;;;;21.68;66.83;100039.97;1680785;85;21048;-60
2023/06/16 04:34:43;;;;;;;21.27;8.00;;;;;;;;;;1680992;85;21060;-59
2023/06/16 04:37:14;;;;;;;17.10;7.70;;;;;;;21.87;65.01;100036.05;1680791;85;21499;-58
2023/06/16 04:39:42;;;;;;;18.23;7.47;;;;;;;21.94;64.55;100039.38;1680733;85;21084;-60
2023/06/16 04:42:12;;;;;;;16.55;6.70;;;;;;;22.01;64.35;100041.88;1680912;85;21077;-59
2023/06/16 04:44:43;;;;;;;18.98;7.78;;;;;;;22.06;63.91;100041.90;1680980;85;21041;-60
2023/06/16 04:47:12;;;;;;;25.68;11.10;;;;;;;22.11;63.61;100046.11;1683486;85;21081;-61
2023/06/16 04:49:41;;;;;;;19.37;8.05;;;;;;;22.14;63.13;100042.75;1653479;87;21118;-61
2023/06/16 04:52:11;;;;;;;9.88;6.90;;;;;;;22.19;63.00;100049.72;1649856;87;21073;-58
2023/06/16 04:54:40;;;;;;;13.15;6.53;;;;;;;22.28;62.60;100052.77;1653352;87;21112;-59
2023/06/16 04:57:10;;;;;;;11.35;5.58;;;;;;;22.39;62.23;100053.00;1618342;87;21086;-61
2023/06/16 04:59:39;;;;;;;14.05;5.20;;;;;;;22.57;61.49;100055.73;1652453;87;21524;-58
2023/06/16 05:02:09;;;;;;;11.68;5.25;;;;;;;22.82;60.78;100050.09;1652514;87;21097;-61
2023/06/16 05:04:43;;;;;;;8.88;4.85;;;;;;;23.08;59.77;100053.57;1652333;86;21018;-61
2023/06/16 05:07:11;;;;;;;8.83;4.33;;;;;;;23.32;58.32;100055.92;1652291;86;21479;-60
2023/06/16 05:09:40;;;;;;;10.03;4.40;;;;;;;23.52;57.04;100052.17;1652475;87;21066;-59
2023/06/16 05:12:11;;;;;;;12.05;4.90;;;;;;;23.70;55.73;100054.28;1652360;87;21494;-60
2023/06/16 05:14:41;;;;;;;8.10;4.35;;;;;;;23.87;55.17;100061.41;1652447;87;21517;-60
2023/06/16 05:17:11;;;;;;;10.75;4.87;;;;;;;24.01;54.98;100060.99;1652421;87;21942;-60
2023/06/16 05:19:40;;;;;;;13.85;4.80;;;;;;;24.21;54.69;100060.81;1652449;87;21066;-60
2023/06/16 05:22:09;;;;;;;13.48;5.15;;;;;;;24.46;53.61;100063.09;1652316;86;21022;-61
2023/06/16 05:24:37;;;;;;;17.07;5.40;;;;;;;24.67;53.01;100061.71;1652555;86;21066;-60
2023/06/16 05:27:07;;;;;;;11.93;5.97;;;;;;;24.90;52.31;100059.47;1652462;86;21192;-60
2023/06/16 05:29:35;;;;;;;11.12;5.10;;;;;;;25.06;51.04;100062.92;1652487;86;21042;-60
2023/06/16 05:32:05;;;;;;;10.18;3.77;;;;;;;25.14;50.25;100060.84;1652639;87;21446;-61
2023/06/16 05:34:35;;;;;;;22.05;5.10;;;;;;;25.30;49.68;100061.45;1652428;87;21050;-60
2023/06/16 05:37:05;;;;;;;10.10;4.30;;;;;;;25.45;49.17;100064.05;1652361;86;21482;-60
2023/06/16 05:39:35;;;;;;;12.60;4.47;;;;;;;25.47;48.79;100063.75;1652310;87;21078;-60
2023/06/16 05:42:04;;;;;;;20.43;5.65;;;;;;;25.41;48.65;100069.17;1652177;87;21125;-61
2023/06/16 05:44:33;;;;;;;12.13;4.35;;;;;;;25.37;48.67;100073.16;1652573;87;21094;-60
2023/06/16 05:47:03;;;;;;;13.32;4.62;;;;;;;25.35;48.23;100062.77;1652656;87;21070;-60
2023/06/16 05:49:32;;;;;;;12.60;4.40;;;;;;;25.27;47.98;100076.91;1652516;87;21090;-59
2023/06/16 05:52:06;;;;;;;13.85;4.30;;;;;;;25.18;47.94;100069.48;1652440;86;21101;-59
2023/06/16 05:54:33;;;;;;;10.40;4.15;;;;;;;25.18;47.86;100072.29;1635470;87;21147;-59
2023/06/16 05:57:02;;;;;;;13.75;3.92;;;;;;;25.19;47.82;100073.95;1641064;85;21037;-61
2023/06/16 05:59:31;;;;;;;13.28;4.37;;;;;;;25.19;47.88;100073.39;1673912;86;21053;-60
2023/06/16 06:01:59;;;;;;;8.35;3.90;;;;;;;25.22;47.84;100078.39;1673735;86;21041;-59
2023/06/16 06:04:32;;;;;;;13.55;4.12;;;;;;;25.26;47.84;100080.02;1677035;85;21104;-59
2023/06/16 06:07:04;;;;;;;10.88;4.25;;;;;;;25.34;47.94;100075.70;1678504;85;21065;-60
2023/06/16 06:09:33;;;;;;;9.93;3.85;;;;;;;25.47;47.17;100071.59;1679194;85;21041;-59
2023/06/16 06:12:04;;;;;;;16.27;5.72;;;;;;;25.63;47.02;100065.73;1678850;85;21068;-61
2023/06/16 06:14:34;;;;;;;11.05;4.35;;;;;;;25.83;46.56;100062.61;1678873;85;21045;-59
2023/06/16 06:17:04;;;;;;;12.33;3.98;;;;;;;26.09;46.18;100069.47;1678653;85;21068;-61
2023/06/16 06:19:33;;;;;;;16.93;4.62;;;;;;;26.37;45.40;100069.54;1678434;85;21014;-59
2023/06/16 06:22:04;;;;;;;14.30;4.78;;;;;;;26.61;44.45;100069.34;1678914;85;21092;-62
2023/06/16 06:24:36;;;;;;;10.43;4.03;;;;;;;26.84;43.53;100065.50;1658798;85;21100;-60
2023/06/16 06:27:10;;;;;;;14.00;4.72;;;;;;;27.09;42.98;100059.92;1678886;85;21045;-60
2023/06/16 06:29:38;;;;;;;12.20;4.70;;;;;;;27.30;42.24;100058.88;1678818;85;21528;-59
2023/06/16 06:32:07;;;;;;;10.68;3.80;;;;;;;27.54;41.51;100060.02;1678308;85;21060;-61
2023/06/16 06:34:37;;;;;;;8.75;3.95;;;;;;;27.77;40.58;100058.90;1659878;85;21068;-60
2023/06/16 06:37:07;;;;;;;12.13;4.20;;;;;;;27.91;40.05;100052.61;1678456;85;21085;-60
2023/06/16 06:39:36;;;;;;;12.82;5.30;;;;;;;28.11;40.08;100055.50;1678648;85;21056;-60
2023/06/16 06:42:07;;;;;;;11.88;4.45;;;;;;;28.27;39.29;100058.75;1653213;85;21085;-61
2023/06/16 06:44:37;;;;;;;9.25;4.50;;;;;;;28.44;39.38;100050.95;1677653;85;21041;-59
2023/06/16 06:47:08;;;;;;;8.25;4.40;;;;;;;28.64;39.29;100051.23;1678781;84;21069;-60
2023/06/16 06:49:39;;;;;;;6.62;3.37;;;;;;;28.78;38.43;100055.91;1659911;85;21179;-60
2023/06/16 06:52:08;;;;;;;13.30;3.72;;;;;;;28.78;36.63;100047.45;1678444;84;21626;-62
2023/06/16 06:54:37;;;;;;;8.50;3.33;;;;;;;28.78;37.18;100051.69;1678553;85;21076;-60
2023/06/16 06:57:06;;;;;;;7.53;3.42;;;;;;;28.98;36.55;100049.69;1678971;85;21092;-62
2023/06/16 06:59:35;;;;;;;10.65;3.27;;;;;;;29.10;35.73;100051.28;1662672;85;21571;-59
2023/06/16 07:02:05;;;;;;;8.23;3.60;;;;;;;29.12;35.91;100047.55;1662046;85;21494;-62
2023/06/16 07:04:35;;;;;;;7.45;3.30;;;;;;;29.27;34.82;100051.33;1661978;85;21093;-61
2023/06/16 07:07:07;;;;;;;9.10;3.67;;;;;;;29.35;34.82;100049.67;1661918;86;21053;-60
2023/06/16 07:09:37;;;;;;;13.55;3.40;;;;;;;29.53;34.27;100044.30;1662361;85;21061;-61
2023/06/16 07:12:08;;;;;;;14.10;3.33;;;;;;;29.71;34.18;100039.47;1662406;85;21045;-62
2023/06/16 07:14:37;;;;;;;11.33;4.10;;;;;;;29.92;34.54;100033.97;1662731;85;21100;-62
2023/06/16 07:17:06;;;;;;;12.05;3.65;;;;;;;30.05;33.75;100034.97;1661801;85;21073;-61
2023/06/16 07:19:35;;;;;;;7.12;3.20;;;;;;;30.11;33.58;100042.10;1642567;86;21093;-61
2023/06/16 07:22:05;;;;;;;13.03;4.12;;;;;;;30.23;33.18;100034.58;1662064;85;21081;-61
2023/06/16 07:24:34;;;;;;;8.40;3.90;;;;;;;30.40;33.16;100035.67;1662269;86;21137;-62
2023/06/16 07:27:04;;;;;;;8.05;3.30;;;;;;;30.55;32.49;100030.86;1662330;85;21050;-60
2023/06/16 07:29:35;;;;;;;13.50;3.67;;;;;;;30.67;31.91;100037.27;1661987;86;21084;-59
2023/06/16 07:32:06;;;;;;;9.23;2.98;;;;;;;30.67;30.88;100032.44;1662678;85;21089;-61
2023/06/16 07:34:34;;;;;;;10.43;3.20;;;;;;;30.71;29.98;100025.52;1661218;85;21074;-62
2023/06/16 07:37:05;;;;;;;7.92;3.00;;;;;;;30.75;29.15;100031.56;1662289;85;21450;-60
2023/06/16 07:39:34;;;;;;;4.58;3.30;;;;;;;30.74;29.29;100029.08;1661966;85;21045;-61
2023/06/16 07:42:04;;;;;;;8.03;3.72;;;;;;;30.66;29.56;100022.88;1662019;86;21462;-61
2023/06/16 07:44:33;;;;;;;7.53;3.30;;;;;;;30.77;29.47;100027.80;1662109;86;21457;-61
2023/06/16 07:47:02;;;;;;;14.53;3.62;;;;;;;30.97;29.41;100023.94;1663035;85;21049;-60
2023/06/16 07:49:31;;;;;;;9.90;4.00;;;;;;;31.15;29.47;100031.16;1662310;85;21018;-60
2023/06/16 07:52:01;;;;;;;7.35;3.25;;;;;;;31.32;29.80;100034.47;1661620;86;21073;-59
2023/06/16 07:54:30;;;;;;;8.98;3.55;;;;;;;31.54;29.46;100025.62;1663283;84;21065;-61
2023/06/16 07:57:00;;;;;;;7.92;3.65;;;;;;;31.61;29.64;100030.13;1641217;86;21060;-61
2023/06/16 07:59:29;;;;;;;7.17;3.33;;;;;;;31.69;29.52;100028.39;1629664;87;21111;-63
2023/06/16 08:01:57;;;;;;;14.03;4.60;;;;;;;31.73;29.79;100027.97;1628816;87;21793;-62
2023/06/16 08:04:29;;;;;;;10.65;3.75;;;;;;;31.82;29.84;100022.45;1680272;85;21476;-62
2023/06/16 08:06:57;;;;;;;10.03;4.00;;;;;;;31.82;30.14;100024.45;1683237;84;21291;-62
2023/06/16 08:09:26;;;;;;;12.43;4.28;;;;;;;31.81;30.33;100022.21;1683030;85;21052;-62
2023/06/16 08:11:55;;;;;;;7.25;3.70;;;;;;;31.87;30.36;100025.69;1683144;85;21079;-62
2023/06/16 08:14:24;;;;;;;6.95;3.70;;;;;;;32.03;29.91;100023.01;1658601;85;21048;-62
2023/06/16 08:16:54;;;;;;;8.15;3.40;;;;;;;32.19;29.81;100016.07;1652474;87;21155;-63
2023/06/16 08:19:22;;;;;;;10.05;3.58;;;;;;;32.37;29.27;100026.87;1622713;88;21050;-61
2023/06/16 08:21:50;;;;;;;7.37;3.60;;;;;;;32.43;29.30;100020.38;1655238;87;21048;-62
2023/06/16 08:24:19;;;;;;;6.28;3.12;;;;;;;32.52;28.35;100024.55;1655293;86;21083;-63
2023/06/16 08:26:48;;;;;;;12.55;3.80;;;;;;;32.47;28.60;100019.91;1624820;88;21510;-63
2023/06/16 08:29:19;;;;;;;7.35;3.65;;;;;;;32.49;28.37;100026.06;1623872;88;21035;-63
2023/06/16 08:31:48;;;;;;;7.90;3.55;;;;;;;32.33;28.20;100022.27;1681160;85;21130;-62
2023/06/16 08:34:18;;;;;;;8.33;3.35;;;;;;;32.27;28.50;100025.92;1683193;84;21075;-61
2023/06/16 08:36:49;;;;;;;7.50;3.50;;;;;;;32.37;28.30;100024.63;1673800;85;21115;-62
2023/06/16 08:39:18;;;;;;;6.62;3.20;;;;;;;32.35;27.96;100018.48;1682894;85;21129;-63
2023/06/16 08:41:47;;;;;;;9.03;3.30;;;;;;;32.13;28.42;100025.39;1683199;84;21476;-62
2023/06/16 08:44:29;;;;;;;6.85;3.35;;;;;;;32.24;28.69;100019.54;1673560;85;21119;-63
2023/06/16 08:51:14;;;;;;;11.35;4.60;;;;;;;32.36;28.20;100011.63;1651398;87;21104;-64
2023/06/16 08:54:17;;;;;;;7.47;3.67;;;;;;;32.33;28.01;100013.17;1616461;88;21118;-63
2023/06/16 08:56:52;;;;;;;6.65;3.10;;;;;;;32.16;27.82;100011.94;1650658;87;21059;-62
2023/06/16 08:59:22;;;;;;;8.03;4.83;;;;;;;31.76;28.63;100012.52;1647194;87;21131;-61
2023/06/16 09:01:52;;;;;;;7.60;4.42;;;;;;;31.67;29.22;100006.66;1643718;87;21114;-62
2023/06/16 09:04:22;;;;;;;14.15;3.90;;;;;;;31.75;29.35;100010.86;1629486;87;21577;-63
2023/06/16 09:06:56;;;;;;;6.70;3.17;;;;;;;31.83;29.52;100014.78;1592217;90;21100;-62
2023/06/16 09:09:23;;;;;;;8.23;3.40;;;;;;;31.95;28.85;100002.68;1592008;89;21085;-63
2023/06/16 09:12:13;;;;;;;5.08;3.33;;;;;;;31.88;29.15;100016.01;1592245;90;21167;-62
2023/06/16 09:14:48;;;;;;;6.87;3.20;;;;;;;31.84;29.64;100001.68;1592153;90;21169;-62
2023/06/16 09:17:12;;;;;;;9.53;3.20;;;;;;;31.94;29.13;100007.52;1591603;90;21109;-64
2023/06/16 09:19:47;;;;;;;9.18;3.47;;;;;;;31.92;28.93;100008.46;1591993;90;21085;-63
2023/06/16 09:22:18;;;;;;;9.45;3.85;;;;;;;31.88;28.87;100005.26;1592201;88;21084;-62
2023/06/16 09:25:06;;;;;;;6.35;3.52;;;;;;;31.85;28.75;100009.59;1645876;86;21103;-64
2023/06/16 09:27:46;;;;;;;6.90;3.72;;;;;;;31.73;29.32;100013.21;1622857;88;21074;-63
2023/06/16 09:30:18;;;;;;;6.28;3.42;;;;;;;31.68;29.55;100008.32;1654963;87;21043;-64
2023/06/16 09:32:51;;;;;;;7.80;3.52;;;;;;;31.45;29.30;100004.45;1615469;88;21043;-63
2023/06/16 09:35:26;;;;;;;7.25;3.50;;;;;;;31.13;29.68;100000.92;1561954;92;21499;-62
2023/06/16 09:37:56;;;;;;;9.15;3.52;;;;;;;30.95;30.08;99998.81;1590468;90;21158;-63
2023/06/16 09:40:33;;;;;;;5.17;3.10;;;;;;;30.93;30.39;99993.26;1590605;90;21135;-62
2023/06/16 09:43:09;;;;;;;11.22;4.10;;;;;;;30.94;30.58;99987.25;1590702;90;21218;-65
2023/06/16 09:45:37;;;;;;;6.87;3.83;;;;;;;30.88;30.71;99994.29;1562391;90;21184;-64
2023/06/16 09:48:11;;;;;;;10.58;4.78;;;;;;;30.66;30.36;99986.12;1590596;90;21111;-63
2023/06/16 09:50:40;;;;;;;12.45;4.08;;;;;;;30.32;31.18;99987.07;1590639;90;21087;-65
2023/06/16 09:53:09;;;;;;;7.08;3.55;;;;;;;30.22;31.50;99982.05;1613864;87;21087;-65
2023/06/16 09:55:40;;;;;;;8.70;4.20;;;;;;;30.21;31.36;99990.28;1655235;86;21448;-63
2023/06/16 09:58:10;;;;;;;6.35;3.80;;;;;;;30.08;31.68;99980.61;1624393;88;21103;-64
2023/06/16 10:00:41;;;;;;;7.08;3.50;;;;;;;29.97;31.79;99973.88;1630896;86;21075;-64
2023/06/16 10:03:09;;;;;;;4.58;3.10;;;;;;;29.93;32.02;99990.44;1652580;87;21044;-63
2023/06/16 10:05:40;;;;;;;8.28;3.77;;;;;;;29.89;32.19;99981.77;1601396;88;21052;-65
2023/06/16 10:08:08;;;;;;;9.68;3.60;;;;;;;29.93;32.28;99977.14;1653007;86;21051;-64
2023/06/16 10:10:41;;;;;;;7.28;3.50;;;;;;;29.95;32.39;99975.39;1616446;88;21135;-63
2023/06/16 10:13:12;;;;;;;9.43;3.85;;;;;;;29.87;32.49;99972.80;1656202;87;21083;-63
2023/06/16 10:15:42;;;;;;;9.53;3.62;;;;;;;29.74;32.50;99965.37;1629542;88;21064;-63
2023/06/16 10:18:16;;;;;;;8.28;3.67;;;;;;;29.72;32.31;99960.64;1656118;87;21499;-63
2023/06/16 10:20:47;;;;;;;4.70;3.55;;;;;;;29.68;32.62;99956.83;1625687;88;21044;-63
2023/06/16 10:23:16;;;;;;;10.72;3.60;;;;;;;29.77;32.87;99961.87;1624653;87;21020;-62
2023/06/16 10:25:45;;;;;;;8.55;4.10;;;;;;;29.81;32.82;99966.27;1630702;87;21676;-63
2023/06/16 10:28:14;;;;;;;7.90;3.62;;;;;;;29.80;32.53;99955.55;1642307;86;21483;-63
2023/06/16 10:30:43;;;;;;;8.30;3.98;;;;;;;29.77;32.21;99958.22;1627929;88;21143;-63
2023/06/16 10:33:25;;;;;;;8.93;3.60;;;;;;;29.62;32.55;99958.17;1626722;88;21080;-68
2023/06/16 10:36:01;;;;;;;6.30;3.42;;;;;;;29.53;32.68;99948.30;1656638;86;21051;-63
2023/06/16 10:38:35;;;;;;;9.28;3.80;;;;;;;29.47;32.92;99955.87;1628566;87;21084;-63
2023/06/16 10:41:08;;;;;;;5.97;3.60;;;;;;;29.42;32.96;99948.97;1643269;86;21087;-63
2023/06/16 10:43:38;;;;;;;6.72;3.50;;;;;;;29.40;33.32;99944.23;1636414;86;21067;-63
2023/06/16 10:46:14;;;;;;;7.53;2.98;;;;;;;29.42;33.03;99944.73;1627529;87;21127;-62
2023/06/16 10:49:15;;;;;;;7.45;3.98;;;;;;;29.44;33.48;99941.02;1626217;87;21492;-64
2023/06/16 10:51:49;;;;;;;7.87;3.58;;;;;;;29.43;33.20;99937.37;1628434;88;21083;-63
2023/06/16 10:54:48;;;;;;;10.45;3.75;;;;;;;29.37;33.25;99935.85;1639484;87;21197;-65
2023/06/16 10:57:16;;;;;;;7.47;3.70;;;;;;;29.33;33.25;99926.39;1613651;86;21067;-64
2023/06/16 11:00:12;;;;;;;6.37;4.00;;;;;;;29.39;33.08;99926.47;1632790;87;21045;-64
2023/06/16 11:02:53;;;;;;;10.93;4.42;;;;;;;29.48;33.32;99923.66;1658718;86;21031;-64
2023/06/16 11:05:22;;;;;;;7.85;3.75;;;;;;;29.53;32.86;99916.42;1646344;85;21097;-64
2023/06/16 11:08:08;;;;;;;9.33;4.20;;;;;;;29.43;32.77;99915.33;1684166;85;21040;-63
2023/06/16 11:11:05;;;;;;;13.18;4.55;;;;;;;29.32;33.44;99919.92;1683662;85;21483;-64
2023/06/16 11:13:39;;;;;;;16.62;7.72;;;;;;;29.20;33.04;99923.14;1682876;85;21526;-65
2023/06/16 11:16:10;;;;;;;8.15;4.20;;;;;;;29.09;33.08;99918.42;1685032;85;21016;-64
2023/06/16 11:18:44;;;;;;;11.50;6.75;;;;;;;28.96;33.21;99918.02;1703142;84;21081;-65
2023/06/16 11:21:13;;;;;;;7.30;4.05;;;;;;;28.84;33.72;99912.20;1685926;84;21505;-64
2023/06/16 11:23:43;;;;;;;7.70;4.47;;;;;;;28.72;33.73;99912.26;1679691;85;21070;-65
2023/06/16 11:26:17;;;;;;;7.12;3.85;;;;;;;28.72;33.73;99912.26;1679370;85;21031;-63
2023/06/16 11:28:52;;;;;;;7.28;3.85;;;;;;;28.67;33.77;99907.36;1683028;85;21100;-65
2023/06/16 11:31:35;;;;;;;10.30;4.37;;;;;;;28.74;33.58;99914.75;1677444;85;21076;-66
2023/06/16 11:34:04;;;;;;;15.18;5.17;;;;;;;28.82;33.67;99906.04;1685631;85;21059;-64
2023/06/16 11:36:35;;;;;;;7.72;3.98;;;;;;;28.90;33.87;99903.83;1684462;85;21191;-65
2023/06/16 11:39:08;;;;;;;11.05;4.28;;;;;;;29.03;34.13;99897.19;1683149;85;21083;-66
2023/06/16 11:41:37;;;;;;;5.65;3.22;;;;;;;29.03;34.13;99897.19;1684953;84;21059;-66
2023/06/16 11:44:13;;;;;;;5.30;3.50;;;;;;;29.05;33.99;99900.50;1684390;84;21122;-65